D/T METAR WX W/DIR W/SPE G/SPE TEMP DEWP
25/05/20 16:50 EGPD 251550Z AUTO 18016KT 9999 NCD 17/10 Q1027 S (180°) 18.4mph 17°C 10°C
25/05/20 16:20 EGPD 251520Z AUTO 19018KT 9999 NCD 17/10 Q1027 NOSIG S (190°) 20.7mph 17°C 10°C
25/05/20 15:50 EGPD 251450Z AUTO 16015KT 9999 SCT049 17/10 Q1027 SSE (160°) 17.3mph 17°C 10°C
25/05/20 15:20 EGPD 251420Z AUTO 17019KT 9999 NCD 16/09 Q1028 NOSIG S (170°) 21.9mph 16°C 9°C
25/05/20 14:50 EGPD 251350Z AUTO 15014KT 9999 NCD 16/09 Q1028 NOSIG SSE (150°) 16.1mph 16°C 9°C
25/05/20 14:20 EGPD 251320Z AUTO 17017KT 9999 NCD 16/09 Q1028 NOSIG S (170°) 19.6mph 16°C 9°C
25/05/20 13:50 EGPD 251250Z AUTO 17014KT 9999 NCD 17/10 Q1028 NOSIG S (170°) 16.1mph 17°C 10°C
25/05/20 13:20 EGPD 251220Z AUTO 17013KT 9999 NCD 16/10 Q1029 NOSIG S (170°) 15.0mph 16°C 10°C
25/05/20 12:50 EGPD 251150Z AUTO 18015KT 9999 SCT036 17/09 Q1029 NOSIG S (180°) 17.3mph 17°C 9°C
25/05/20 12:20 EGPD 251120Z AUTO 17013KT 9999 BKN035 17/10 Q1029 NOSIG S (170°) 15.0mph 17°C 10°C
25/05/20 11:50 EGPD 251050Z AUTO 18016KT 9999 NCD 17/09 Q1029 NOSIG S (180°) 18.4mph 17°C 9°C
25/05/20 11:20 EGPD 251020Z AUTO 18013KT 9999 SCT034 17/09 Q1029 NOSIG S (180°) 15.0mph 17°C 9°C
25/05/20 10:50 EGPD 250950Z AUTO 21012KT 9999 FEW037 17/08 Q1029 NOSIG SSW (210°) 13.8mph 17°C 8°C
25/05/20 10:20 EGPD 250920Z AUTO 20009KT 9999 NCD 17/07 Q1029 NOSIG SSW (200°) 10.4mph 17°C 7°C
25/05/20 09:50 EGPD 250850Z AUTO 20008KT 9999 NCD 16/07 Q1030 NOSIG SSW (200°) 9.2mph 16°C 7°C
25/05/20 09:20 EGPD 250820Z AUTO 19009KT 9999 NCD 15/07 Q1030 S (190°) 10.4mph 15°C 7°C
25/05/20 08:50 EGPD 250750Z AUTO 18007KT 9999 NCD 14/07 Q1030 S (180°) 8.1mph 14°C 7°C
25/05/20 08:20 EGPD 250720Z AUTO 19006KT 9999 NCD 13/07 Q1030 NOSIG S (190°) 6.9mph 13°C 7°C
25/05/20 07:50 EGPD 250650Z AUTO VRB01KT 9999 NCD 13/07 Q1030 NOSIG N (0°) 1.2mph 13°C 7°C
25/05/20 07:20 EGPD 250620Z AUTO VRB01KT 9999 NCD 11/06 Q1030 NOSIG N (0°) 1.2mph 11°C 6°C
25/05/20 06:50 EGPD 250550Z AUTO VRB01KT 9999 NCD 09/05 Q1030 N (0°) 1.2mph 9°C 5°C
25/05/20 06:20 EGPD 250520Z AUTO 36002KT 9999 NCD 07/05 Q1030 NOSIG N (360°) 2.3mph 7°C 5°C
25/05/20 05:50 EGPD 250450Z AUTO VRB01KT 9999 NCD 05/04 Q1030 NOSIG N (0°) 1.2mph 5°C 4°C
25/05/20 05:20 EGPD 250420Z AUTO 04002KT 9999 NCD 04/03 Q1030 NOSIG NE (40°) 2.3mph 4°C 3°C
25/05/20 04:50 EGPD 250350Z AUTO 15002KT 9999 NCD 04/03 Q1030 SSE (150°) 2.3mph 4°C 3°C
25/05/20 04:20 EGPD 250320Z AUTO VRB01KT 9999 NCD 04/03 Q1030 NOSIG N (0°) 1.2mph 4°C 3°C
25/05/20 03:50 EGPD 250250Z AUTO 02002KT 9999 NCD 04/03 Q1030 NOSIG NNE (20°) 2.3mph 4°C 3°C
25/05/20 03:20 EGPD 250220Z AUTO VRB03KT 9999 NCD 05/03 Q1030 N (0°) 3.5mph 5°C 3°C
25/05/20 02:50 EGPD 250150Z AUTO VRB01KT 9999 NCD 06/04 Q1030 NOSIG N (0°) 1.2mph 6°C 4°C
25/05/20 02:20 EGPD 250120Z AUTO VRB01KT 9999 NCD 07/04 Q1030 N (0°) 1.2mph 7°C 4°C
25/05/20 01:50 EGPD 250050Z AUTO 22004KT 170V260 9999 NCD 07/05 Q1029 SW (220°) 4.6mph 7°C 5°C
25/05/20 01:20 EGPD 250020Z AUTO 25003KT 9999 NCD 07/05 Q1029 NOSIG WSW (250°) 3.5mph 7°C 5°C
25/05/20 00:50 EGPD 242350Z AUTO VRB03KT 9999 NCD 09/06 Q1029 NOSIG N (0°) 3.5mph 9°C 6°C
25/05/20 00:20 EGPD 242320Z AUTO 30005KT 9999 NCD 09/06 Q1029 NOSIG WNW (300°) 5.8mph 9°C 6°C
24/05/20 23:50 EGPD 242250Z AUTO VRB02KT 9999 NCD 10/06 Q1029 NOSIG N (0°) 2.3mph 10°C 6°C
24/05/20 22:50 EGPD 242150Z AUTO VRB02KT 9999 FEW038 12/07 Q1028 N (0°) 2.3mph 12°C 7°C
24/05/20 22:20 EGPD 242120Z AUTO 28006KT 9999 NCD 11/06 Q1028 NOSIG W (280°) 6.9mph 11°C 6°C
24/05/20 21:50 EGPD 242050Z AUTO 29007KT 9999 NCD 12/07 Q1028 WNW (290°) 8.1mph 12°C 7°C
24/05/20 20:50 EGPD 241950Z AUTO 28004KT 240V330 9999 NCD 14/07 Q1027 NOSIG W (280°) 4.6mph 14°C 7°C
24/05/20 20:20 EGPD 241920Z AUTO 28011KT 9999 NCD 15/07 Q1026 W (280°) 12.7mph 15°C 7°C
24/05/20 19:50 EGPD 241850Z 27012KT 9999 FEW030 16/08 Q1026 W (270°) 13.8mph 16°C 8°C
24/05/20 19:20 EGPD 241820Z AUTO 28015KT 9999 NCD 16/08 Q1026 W (280°) 17.3mph 16°C 8°C
24/05/20 18:50 EGPD 241750Z AUTO 27012KT 9999 SCT036 SCT047 16/08 Q1025 NOSIG W (270°) 13.8mph 16°C 8°C
24/05/20 18:20 EGPD 241720Z AUTO 29012KT 260V350 9999 SCT036 BKN044 17/08 Q1025 NOSIG WNW (290°) 13.8mph 17°C 8°C
24/05/20 17:50 EGPD 241650Z AUTO 29013KT 9999 FEW034 BKN046 17/09 Q1025 NOSIG WNW (290°) 15.0mph 17°C 9°C
24/05/20 17:20 EGPD 241620Z AUTO 30016KT 9999 SCT033 SCT040 BKN048 17/09 Q1025 NOSIG WNW (300°) 18.4mph 17°C 9°C
24/05/20 16:50 EGPD 241550Z AUTO 29017KT 9999 FEW032 SCT039 BKN047 17/09 Q1024 NOSIG WNW (290°) 19.6mph 17°C 9°C
24/05/20 16:20 EGPD 241520Z AUTO 29012KT 9999 FEW032 BKN039 16/10 Q1024 WNW (290°) 13.8mph 16°C 10°C
24/05/20 15:50 EGPD 241450Z AUTO 30014KT 9999 BKN031 BKN043 17/10 Q1023 WNW (300°) 16.1mph 17°C 10°C
24/05/20 15:20 EGPD 241420Z AUTO 29011KT 260V330 9999 SCT029 BKN034 16/10 Q1023 NOSIG WNW (290°) 12.7mph 16°C 10°C
24/05/20 14:50 EGPD 241350Z AUTO 30011KT 9999 BKN031 OVC039 16/09 Q1023 NOSIG WNW (300°) 12.7mph 16°C 9°C
24/05/20 14:20 EGPD 241320Z AUTO 28014KT 9999 BKN032 OVC042 16/09 Q1022 W (280°) 16.1mph 16°C 9°C
24/05/20 13:50 EGPD 241250Z AUTO 29016KT 270V330 9999 BKN033 BKN039 OVC046 16/09 Q1021 WNW (290°) 18.4mph 16°C 9°C
24/05/20 12:50 EGPD 241150Z AUTO 30010KT 9999 OVC035 15/09 Q1020 NOSIG WNW (300°) 11.5mph 15°C 9°C
24/05/20 12:20 EGPD 241120Z AUTO 29013KT 240V320 9999 OVC033 15/08 Q1020 NOSIG WNW (290°) 15.0mph 15°C 8°C
24/05/20 11:50 EGPD 241050Z AUTO 31007KT 9999 BKN033 OVC045 15/08 Q1019 NOSIG NW (310°) 8.1mph 15°C 8°C
24/05/20 11:20 EGPD 241020Z AUTO 31008KT 9999 BKN035 OVC042 15/08 Q1019 NOSIG NW (310°) 9.2mph 15°C 8°C
24/05/20 10:50 EGPD 240950Z AUTO 30009KT 9999 OVC034 15/08 Q1018 NOSIG WNW (300°) 10.4mph 15°C 8°C
24/05/20 10:20 EGPD 240920Z AUTO 30011KT 9999 BKN036 OVC049 15/08 Q1018 NOSIG WNW (300°) 12.7mph 15°C 8°C
24/05/20 09:50 EGPD 240850Z AUTO 28012KT 9999 BKN035 14/07 Q1017 NOSIG W (280°) 13.8mph 14°C 7°C
24/05/20 09:20 EGPD 240820Z AUTO 29012KT 9999 OVC035 14/07 Q1017 NOSIG WNW (290°) 13.8mph 14°C 7°C
24/05/20 08:50 EGPD 240750Z AUTO 29013KT 9999 BKN034 OVC043 14/06 Q1017 NOSIG WNW (290°) 15.0mph 14°C 6°C
24/05/20 08:20 EGPD 240720Z AUTO 28012G22KT 9999 BKN036 14/06 Q1016 NOSIG W (280°) 13.8mph 25.3mph 14°C 6°C
24/05/20 07:50 EGPD 240650Z AUTO 26007KT 220V310 9999 SCT039 13/05 Q1015 NOSIG W (260°) 8.1mph 13°C 5°C
24/05/20 07:20 EGPD 240620Z AUTO 27009KT 230V290 9999 NCD 12/04 Q1015 NOSIG W (270°) 10.4mph 12°C 4°C
24/05/20 06:50 EGPD 240550Z AUTO 26010KT 9999 FEW039 11/04 Q1015 NOSIG W (260°) 11.5mph 11°C 4°C
24/05/20 06:20 EGPD 240520Z AUTO 28010KT 240V300 9999 FEW038 11/04 Q1014 NOSIG W (280°) 11.5mph 11°C 4°C
24/05/20 05:20 EGPD 240420Z AUTO 28011KT 9999 NCD 10/03 Q1013 NOSIG W (280°) 12.7mph 10°C 3°C
24/05/20 04:50 EGPD 240350Z AUTO 28013KT 240V310 9999 NCD 10/03 Q1012 W (280°) 15.0mph 10°C 3°C
24/05/20 04:20 EGPD 240320Z AUTO 28011G23KT 250V320 9999 NCD 10/03 Q1012 W (280°) 12.7mph 26.5mph 10°C 3°C
24/05/20 03:20 EGPD 240220Z AUTO 26012KT 230V290 9999 NCD 10/03 Q1011 W (260°) 13.8mph 10°C 3°C
24/05/20 02:50 EGPD 240150Z AUTO 26016KT 9999 NCD 11/04 Q1010 W (260°) 18.4mph 11°C 4°C
24/05/20 02:20 EGPD 240120Z AUTO 26014KT 9999 NCD 11/04 Q1010 W (260°) 16.1mph 11°C 4°C
24/05/20 01:20 EGPD 240020Z AUTO 26012KT 230V300 9999 NCD 11/04 Q1009 W (260°) 13.8mph 11°C 4°C
24/05/20 00:50 EGPD 232350Z AUTO 27016G27KT 9999 NCD 11/03 Q1009 NOSIG W (270°) 18.4mph 31.1mph 11°C 3°C
24/05/20 00:20 EGPD 232320Z AUTO 27014KT 240V310 9999 NCD 11/03 Q1009 W (270°) 16.1mph 11°C 3°C
23/05/20 23:50 EGPD 232250Z AUTO 26016KT 9999 NCD 11/03 Q1008 NOSIG W (260°) 18.4mph 11°C 3°C
23/05/20 22:50 EGPD 232150Z AUTO 24008KT 210V280 9999 FEW046 10/03 Q1008 NOSIG WSW (240°) 9.2mph 10°C 3°C
23/05/20 22:20 EGPD 232120Z AUTO 25013KT 230V290 9999 NCD 11/03 Q1007 NOSIG WSW (250°) 15.0mph 11°C 3°C
23/05/20 21:50 EGPD 232050Z AUTO 26016G26KT 230V290 9999 NCD 11/02 Q1007 NOSIG W (260°) 18.4mph 29.9mph 11°C 2°C
23/05/20 21:20 EGPD 232020Z AUTO 27020KT 230V300 9999 NCD 12/03 Q1006 NOSIG W (270°) 23.0mph 12°C 3°C
23/05/20 20:50 EGPD 231950Z AUTO 27015G26KT 9999 SCT046 12/04 Q1006 NOSIG W (270°) 17.3mph 29.9mph 12°C 4°C
23/05/20 20:20 EGPD 231920Z AUTO 27016G26KT 230V300 9999 SCT041 BKN048 13/05 Q1006 NOSIG W (270°) 18.4mph 29.9mph 13°C 5°C
23/05/20 19:50 EGPD 231850Z AUTO 27017KT 9999 BKN041 13/05 Q1005 NOSIG W (270°) 19.6mph 13°C 5°C
23/05/20 19:20 EGPD 231820Z AUTO 26012KT 230V290 9999 OVC041 13/05 Q1004 NOSIG W (260°) 13.8mph 13°C 5°C
23/05/20 18:50 EGPD 231750Z AUTO 25015KT 9999 BKN045 14/05 Q1004 WSW (250°) 17.3mph 14°C 5°C
23/05/20 18:20 EGPD 231720Z AUTO 25013KT 9999 BKN046 14/06 Q1003 WSW (250°) 15.0mph 14°C 6°C
23/05/20 17:50 EGPD 231650Z AUTO 25015KT 9999 OVC041 14/06 Q1003 WSW (250°) 17.3mph 14°C 6°C
23/05/20 17:20 EGPD 231620Z AUTO 25015G29KT 9999 SCT041 OVC048 14/06 Q1002 WSW (250°) 17.3mph 33.4mph 14°C 6°C
23/05/20 16:50 EGPD 231550Z AUTO 25017KT 9999 BKN045 15/06 Q1002 NOSIG WSW (250°) 19.6mph 15°C 6°C
23/05/20 16:20 EGPD 231520Z AUTO 24019G30KT 9999 BKN046 15/05 Q1001 WSW (240°) 21.9mph 34.5mph 15°C 5°C
23/05/20 15:50 EGPD 231450Z AUTO 25016G26KT 220V290 9999 SCT047 15/06 Q1001 TEMPO SHRA WSW (250°) 18.4mph 29.9mph 15°C 6°C
23/05/20 15:20 EGPD 231420Z AUTO 27016G27KT 240V300 9999 SCT045 15/07 Q1001 W (270°) 18.4mph 31.1mph 15°C 7°C
23/05/20 14:20 EGPD 231320Z AUTO 25018G29KT 9999 SCT043 15/07 Q0999 TEMPO RA WSW (250°) 20.7mph 33.4mph 15°C 7°C
23/05/20 13:50 EGPD 231250Z AUTO 23020KT 9999 BKN040 OVC049 15/07 Q0999 TEMPO SHRA SW (230°) 23.0mph 15°C 7°C
23/05/20 13:20 EGPD 231220Z AUTO 22018KT 9999 SCT039 BKN049 15/07 Q0998 SW (220°) 20.7mph 15°C 7°C